Elkton, Maryland
Current Conditions -  °F | °C
As of 6:51 AM on Wednesday 28 Jan 2015 (Local Time) from KILG Reporting Station
Clear Clear  
Wind Chill:   Ceiling: Unl
Heat Index: 20°   Visibility: 10mi
Dew Point:   Wind: 21mph
Humidity: 44%   Direction: 320°NW
Pressure: 30.08"   Gusts: 29mph
Location:  39.61°N, 75.83°W
Report Text: KILG 281151Z 32018G25KT 10SM CLR M07/M17 A3008 RMK AO2 SLP186 T10671172 11067 21072 53022
Loading
Personal Weather Stations






























Interactive Weather Map New forecast layout! Learn more

10-Day Weather Forecast

Advertisements
Track Severe Weather on mobile